Price Drain - ID # 4573

Current at Gage | Station Description | Rating Curve | Rating Table | Cross Section | DSS

Page Last Updated: 12 December 2018


View Larger Map

ID History | Site Data | Brief Rating | Water Year Peaks | Runoff History | Monthly Data Plots | Site Precip Data

Reload Page   |  ASWR   |   Streamflow Homepage   |   FCD Home Page


GAGE ID HISTORY

ID Elevation of
Instrument
in Gage Height
Elevation of
Instrument
in Datum
Period
       
4573 0.26 feet 0.26 feet 02/18/2001 -- Current

Back to Top   |   Streamflow Homepage   |   FCD Home Page

SITE DATA

STATUS Active
LOCATION Located within the Loop 101 / Loop 202 Interchange
DRAINAGE AREA Not Determined
STREAM TYPE Engineered Channel
JURISDICTION Mesa
WATERSHED Lower East Maricopa Floodway
SECTION/TOWNSHIP/RANGE S18 T1N R5E
LATITUDE N 33° 26' 03.8"  |  +33.43440
LONGITUDE W 111° 53' 25.0"  |  -111.89028
ARIZONA STATE PLANE E 708043  | N 885566
USGS QUAD SHEET Tempe 7.5-Minute
STREAMGAGE INSTALLATION DATE 02/18/2001 - WY 2001
PERIOD OF AVAILABLE DATA RECORD 02/18/2001 - Current
LENGTH OF AVAILABLE DATA RECORD (AS OF 10/01/2018) 17.62 Years | 6,434 Days
GAPS (> 2 DAYS) IN RECORD None
STAGE GAGE TYPE Pressure Transducer
STAGE GAGE ELEVATION 0.26 feet Gage Height
STAFF GAGES 0
CREST STAGE GAGES 0
ZERO GAGE HEIGHT ELEVATION 0.00 feet Gage Height
POINT OF ZERO FLOW 0.00 feet Gage Height
EXTREME FOR PERIOD OF RECORD 993 cfs | 8.50 feet | 03/04/2004

Back to Top   |   Streamflow Homepage   |   FCD Home Page

BRIEF RATING

Current Rating = #2 - Applied since 10/01/2004
Gage
Height
(feet)
Discharge
(cfs)
Gage
Height
(feet)
Discharge
(cfs)
0.0 0 8.0 990
1.2 21 10.0 1,627
2.0 62 12.0 2,468
4.0 230 14.0 3,528
6.0 538 16.0 4,843

Back to Top   |   Streamflow Homepage   |   FCD Home Page

WATER YEAR PEAKS

Water
Year
Peak
Gage Height
(feet)
Peak
Discharge
(cfs)
Date of
Peak
2020      
2019      
2018 6.35 607 08/10/2018
2017 4.70 323 08/03/2017
2016 3.72 201 07/29/2016
2015 2.58 102 05/15/2015
2014 5.41 434 09/08/2014
2013 3.46 176 09/09/2013
2012 3.08 142 07/14/2012
2011 3.56 186 10/05/2010
2010 3.78 207 08/17/2010
2009 3.41 170 02/09/2009
2008 4.53 299 07/13/2008
2007 4.36 276 07/30/2007
2006 4.74 328 07/25/2006
2005 5.01 369 02/11/2005
2004 8.50 993 03/04/2004
2003 4.28 222 07/29/2003
2002 3.72 165 07/14/2002
2001 4.40 236 03/07/2001

Back to Top   |   Streamflow Homepage   |   FCD Home Page

RUNOFF EVENT HISTORY (RUNOFF ≥ 50 CFS)

Date of
Peak
Time of
Peak
Runoff
Start
Runoff
End
Duration
(hours)
Peak
Stage
(feet GH)
Peak
Discharge
(CFS)
Water
Year
View a Plot of These Data
               
09/19/2018 22:09 09/19/2018 21:18 09/20/2018 11:07 13.8 1.94 58 2018
08/12/2018 18:55 08/12/2018 18:26 08/13/2018 07:07 12.7 4.33 272 2018
08/10/2018 00:43 08/09/2018 23:36 08/11/2018 18:00 42.4 6.35 607 2018
08/08/2018 21:14 08/08/2018 20:07 08/09/2018 22:07 26.0 2.71 111 2018
08/08/2018 00:20 08/07/2018 23:07 08/08/2018 16:13 17.1 2.36 86 2018
07/10/2018 17:33 07/09/2018 16:05 07/10/2018 23:26 31.4 4.53 299 2018
07/09/2018 16:39 07/09/2018 16:05 07/10/2018 23:26 31.4 4.13 246 2018
08/12/2017 23:38 08/12/2017 21:14 08/14/2017 07:37 34.4 2.70 111 2017
08/03/2017 18:24 08/03/2017 17:45 08/04/2017 14:52 21.1 4.70 323 2017
07/24/2017 10:35 07/24/2017 03:40 07/27/2017 18:00 86.3 3.20 152 2017
07/23/2017 20:24 07/23/2017 19:54 07/24/2017 01:08 5.2 3.77 206 2017
02/28/2017 17:53 02/28/2017 16:46 03/01/2017 15:00 22.2 2.16 72 2017
02/19/2017 01:44 02/18/2017 20:08 02/20/2017 12:57 40.8 2.81 119 2017
01/21/2017 00:00 01/20/2017 14:43 01/22/2017 15:00 48.3 3.78 207 2017
01/01/2017 10:13 01/01/2017 09:41 01/01/2017 23:33 13.9 2.31 82 2017
12/24/2016 21:46 12/24/2016 16:07 12/25/2016 13:12 21.1 2.18 73 2017
12/22/2016 04:09 12/22/2016 02:57 12/23/2016 02:16 23.3 3.03 138 2017
11/28/2016 03:22 11/27/2016 20:41 11/28/2016 11:51 15.2 2.06 66 2017
11/09/2016 12:49 11/09/2016 11:48 11/09/2016 16:51 5.1 2.01 63 2017
11/03/2016 18:18 11/03/2016 16:49 11/04/2016 14:07 21.3 2.43 91 2017
10/02/2016 18:00 10/02/2016 09:12 10/03/2016 14:15 29.1 2.38 87 2017
08/21/2016 18:23 08/21/2016 17:53 08/22/2016 15:18 124 3.57 187 2016
08/11/2016 08:18 08/11/2016 06:49 08/16/2016 11:12 4.4 2.90 127 2016
08/03/2016 15:37 08/02/2016 20:46 08/05/2016 02:40 53.9 3.52 182 2016
07/29/2016 21:07 07/29/2016 20:19 07/31/2016 11:49 39.5 3.72 201 2016
06/30/2016 03:48 06/29/2016 21:43 07/02/2016 12:00 62.3 2.35 85 2016
04/08/2016 01:56 04/08/2016 00:51 04/08/2016 05:30 4.7 2.24 77 2016
01/07/2016 11:59 01/07/2016 09:14 01/08/2016 09:43 24.5 2.61 104 2016
10/18/2015 16:48 10/18/2015 16:37 10/19/2015 01:22 8.8 1.98 61 2016
08/29/2015 21:16 08/29/2015 19:29 08/30/2015 21:19 25.8 2.51 96 2015
08/27/2015 17:19 08/27/2015 16:49 08/27/2015 21:13 4.4 2.24 77 2015
05/15/2015 23:26 05/15/2015 21:46 05/18/2015 17:30 67.7 2.58 102 2015
05/04/2015 05:13 05/04/2015 03:30 05/06/2015 05:39 50.2 2.24 77 2015
12/04/2014 09:04 12/04/2014 06:21 12/05/2014 13:09 30.8 2.01 63 2015
09/27/2014 16:25 09/27/2014 08:52 10/05/2014 22:24 206 5.24 405 2014
09/08/2014 06:45 09/08/2014 02:29 09/20/2014 17:44 303 5.41 434 2014
08/13/2014 08:27 08/13/2014 06:52 08/14/2014 17:43 34.9 1.61 40 2014
08/12/2014 17:26 08/12/2014 17:09 08/13/2014 04:05 10.9 2.46 93 2014
08/03/2014 18:42 08/03/2014 18:17 08/04/2014 02:08 7.9 2.41 89 2014
07/13/2014 17:42 07/13/2014 17:05 07/14/2014 17:42 24.6 2.28 80 2014
03/01/2014 20:11 03/01/2014 18:34 03/02/2014 19:10 24.6 2.16 72 2014
11/22/2013 07:37 11/21/2013 22:58 11/24/2013 12:29 61.5 2.76 115 2014
09/09/2013 11:56 09/09/2013 11:24 09/10/2013 13:57 26.6 3.46 176 2013
07/20/2013 21:58 07/20/2013 20:24 07/22/2013 04:32 32.1 2.11 69 2013
07/15/2013 18:29 07/15/2013 17:57 07/15/2013 23:02 5.1 2.01 63 2013
03/08/2013 13:52 03/08/2013 05:10 03/10/2013 08:16 51.1 2.81 119 2013
01/26/2013 08:46 01/26/2013 06:17 01/30/2013 11:59 102 2.81 119 2013
12/14/2012 01:59 12/13/2012 22:35 12/16/2012 13:53 63.3 2.98 134 2013
08/23/2012 02:53 08/23/2012 02:14 08/25/2012 04:56 50.7 2.88 125 2012
07/14/2012 16:30 07/14/2012 15:49 07/14/2012 21:03 5.2 3.08 142 2012
12/13/2011 21:45 12/13/2011 17:11 12/16/2011 08:17 63.1 1.76 48 2012
10/21/2010 05:06 10/21/2010 04:44 10/22/2010 12:32 31.8 1.48 33 2011
10/05/2010 17:46 10/05/2010 13:30 10/07/2010 09:57 44.5 3.56 186 2011
08/21/2010 22:53 08/21/2010 22:15 08/24/2010 10:11 59.9 3.74 202 2010
08/17/2010 19:55 08/17/2010 18:56 08/18/2010 16:02 21.1 3.78 207 2010
07/31/2010 01:30 07/31/2010 00:42 08/01/2010 00:27 23.8 2.81 118 2010
07/29/2010 16:17 07/29/2010 15:49 07/30/2010 06:40 14.9 2.66 106 2010
07/28/2010 20:55 07/28/2010 19:30 07/29/2010 01:30 6.0 2.44 90 2010
01/24/2010 02:45 01/19/2010 18:11 01/26/2010 14:45 165 1.81 50 2010
01/23/2010 00:00 01/19/2010 18:11 01/26/2010 14:45 165 2.06 66 2010
01/22/2010 06:24 01/19/2010 18:11 01/26/2010 14:45 165 3.71 199 2010
01/21/2010 21:24 01/19/2010 18:11 01/26/2010 14:45 165 3.59 187 2010
01/20/2010 00:10 01/19/2010 18:11 01/26/2010 14:45 165 2.51 95 2010
01/19/2010 23:03 01/19/2010 18:11 01/26/2010 14:45 165 2.93 128 2010
09/05/2009 09:46 09/05/2009 09:21 09/05/2009 14:16 4.9 2.01 63 2009
08/13/2009 02:59 08/13/2009 00:08 08/14/2009 06:20 30.2 2.61 103 2009
07/21/2009 05:20 07/21/2009 04:13 07/23/2009 06:03 49.8 2.41 88 2009
02/09/2009 22:37 02/09/2009 19:59 02/11/2009 15:08 43.2 3.41 170 2009
02/08/2009 07:47 02/08/2009 05:53 02/09/2009 03:08 21.3 2.81 118 2009
12/25/2008 15:33 12/25/2008 14:24 12/25/2008 20:07 5.7 2.91 126 2009
09/10/2008 20:51 09/10/2008 20:33 09/12/2008 13:38 41.1 2.56 99 2008
08/28/2008 22:16 08/28/2008 21:38 08/29/2008 13:37 16.0 3.38 168 2008
08/27/2008 04:36 08/27/2008 03:02 08/27/2008 09:06 6.1 2.16 72 2008
08/07/2008 21:11 08/07/2008 20:39 08/08/2008 13:39 17.0 3.38 168 2008
08/05/2008 22:22 08/05/2008 21:59 08/07/2008 07:59 34.0 3.29 158 2008
07/13/2008 16:58 07/13/2008 16:05 07/14/2008 12:13 20.1 4.53 299 2008
07/11/2008 02:00 07/10/2008 20:20 07/13/2008 12:00 63.7 2.86 122 2008
05/23/2008 00:52 05/22/2008 13:38 05/24/2008 07:38 42.0 2.43 90 2008
01/27/2008 20:04 01/27/2008 08:22 02/02/2008 07:40 143 2.91 126 2008
01/07/2008 13:36 01/07/2008 10:28 01/09/2008 13:40 51.2 2.16 72 2008
12/08/2007 06:50 12/07/2007 18:30 12/10/2007 18:08 71.6 2.56 99 2008
12/01/2007 00:28 11/30/2007 13:22 12/03/2007 15:06 73.7 2.96 130 2008
07/30/2007 18:03 07/30/2007 16:32 08/05/2007 09:17 137 4.36 276 2007
07/20/2007 00:05 07/19/2007 23:37 07/21/2007 00:54 25.3 2.46 92 2007
03/22/2007 22:16 03/22/2007 18:50 03/24/2007 21:54 51.1 3.51 180 2007
01/31/2007 14:13 01/31/2007 13:28 02/01/2007 09:11 19.7 2.71 110 2007
09/02/2006 22:02 09/02/2006 20:35 09/03/2006 17:23 20.8 2.46 92 2006
08/24/2006 10:32 08/24/2006 08:54 08/27/2006 13:10 76.3 2.46 92 2006
08/21/2006 19:18 08/21/2006 18:55 08/21/2006 23:41 4.8 3.01 134 2006
08/12/2006 00:04 08/11/2006 22:40 08/14/2006 06:06 55.4 2.81 118 2006
07/25/2006 22:25 07/25/2006 22:17 07/26/2006 08:47 10.5 4.74 328 2006
03/11/2006 11:20 03/11/2006 04:55 03/13/2006 03:25 46.5 2.68 108 2006
11/19/2005 05:19 11/19/2005 05:04 11/19/2005 11:54 6.8 1.99 61 2006
10/17/2005 19:03 10/17/2005 17:48 10/22/2005 09:48 136 1.88 55 2006
08/11/2005 13:56 08/11/2005 11:39 08/12/2005 12:32 24.9 2.88 124 2005
08/10/2005 07:08 08/10/2005 05:29 08/11/2005 08:35 27.1 2.76 114 2005
08/04/2005 23:18 08/04/2005 23:05 08/05/2005 06:08 7.1 3.36 165 2005
08/03/2005 22:19 08/03/2005 16:04 08/04/2005 22:06 30.0 2.73 112 2005
08/03/2005 06:08 08/03/2005 05:14 08/03/2005 11:06 5.9 2.84 120 2005
08/02/2005 22:01 08/02/2005 21:42 08/03/2005 04:51 7.2 3.98 228 2005
03/05/2005 04:01 03/05/2005 03:31 03/05/2005 10:46 7.3 3.04 108 2005
02/19/2005 02:43 02/19/2005 00:48 02/19/2005 21:58 21.2 2.61 78 2005
02/11/2005 21:58 02/10/2005 22:23 02/16/2005 19:13 141 5.01 311 2005
01/29/2005 15:22 01/28/2005 19:12 02/08/2005 04:38 249 3.61 151 2005
01/04/2005 00:23 01/03/2005 10:28 01/08/2005 01:13 111 3.61 155 2005
12/30/2004 04:53 12/29/2004 13:13 12/31/2004 04:43 39.5 2.48 70 2005
09/19/2004 04:46 09/19/2004 01:16 09/19/2004 13:16 12.0 3.34 131 2004
07/13/2004 23:59 07/13/2004 23:29 07/14/2004 07:14 7.7 2.33 61 2004
04/02/2004 14:52 04/02/2004 05:02 04/04/2004 00:46 43.7 3.00 105 2004
03/04/2004 20:17 03/04/2004 18:07 03/06/2004 19:17 49.2 8.50 993 2004
02/23/2004 07:12 02/23/2004 04:32 02/25/2004 10:22 53.8 2.92 99 2004
11/12/2003 17:05 11/12/2003 11:50 11/13/2003 19:20 31.5 2.17 53 2004
08/18/2003 17:08 08/17/2003 09:58 08/22/2003 16:53 127 2.90 98 2003
07/29/2003 21:35 07/29/2003 20:40 08/02/2003 13:25 88.8 4.28 222 2003
03/16/2003 14:02 03/16/2003 13:47 03/18/2003 15:51 50.1 3.88 180 2003
02/26/2003 00:03 02/25/2003 16:23 02/27/2003 02:22 34.0 2.75 87 2003
02/14/2003 02:28 02/13/2003 04:53 02/16/2003 11:08 78.3 2.72 86 2003
12/23/2002 11:32 12/23/2002 07:12 12/25/2002 12:47 53.6 2.15 51 2003
10/26/2002 15:38 10/26/2002 14:48 10/27/2002 17:18 26.5 3.15 116 2003
09/06/2002 20:50 09/06/2002 19:35 09/08/2002 05:20 33.8 3.28 126 2002
07/23/2002 20:30 07/23/2002 19:20 07/24/2002 06:45 11.4 3.33 130 2002
07/14/2002 22:16 07/14/2002 21:34 07/15/2002 01:51 4.3 3.72 165 2002
12/04/2001 12:20 12/04/2001 17:25 12/05/2001 08:47 15.4 2.70 84 2002
08/09/2001 02:17 08/09/2001 01:15 08/10/2001 09:13 32.0 2.70 84 2001
07/29/2001 23:04 07/29/2001 22:12 08/01/2001 14:10 64.0 4.30 224 2001
04/05/2001 17:30 04/05/2001 20:50 04/08/2001 06:24 57.6 3.10 112 2001
03/09/2001 17:30 03/09/2001 00:57 03/11/2001 00:19 47.4 3.12 114 2001
03/07/2001 10:19 03/07/2001 02:35 03/07/2001 22:04 19.5 4.40 236 2001

Back to Top   |   Streamflow Homepage   |   FCD Home Page